createdAt,value
2017-01-27T00:00:13.630Z,0
2017-01-27T00:01:13.777Z,0
2017-01-27T00:02:14.602Z,0
2017-01-27T00:03:14.262Z,0
2017-01-27T00:04:13.987Z,0
2017-01-27T00:05:13.554Z,0
2017-01-27T00:06:14.228Z,0
2017-01-27T00:07:17.524Z,0
2017-01-27T00:08:16.516Z,0
2017-01-27T00:09:17.829Z,0
2017-01-27T00:10:16.780Z,0
2017-01-27T00:11:18.114Z,0
2017-01-27T00:12:14.792Z,0
2017-01-27T00:13:13.800Z,0
2017-01-27T00:14:12.965Z,0
2017-01-27T00:15:14.961Z,0
2017-01-27T00:16:13.615Z,0
2017-01-27T00:17:05.426Z,0
2017-01-27T00:18:05.402Z,0
2017-01-27T00:19:05.560Z,0
2017-01-27T00:20:05.509Z,0
2017-01-27T00:21:05.370Z,0
2017-01-27T00:22:07.230Z,0
2017-01-27T00:23:05.384Z,0
2017-01-27T00:24:05.379Z,0
2017-01-27T00:25:05.393Z,0
2017-01-27T00:26:05.374Z,0
2017-01-27T00:27:05.444Z,0
2017-01-27T00:28:05.392Z,0
2017-01-27T00:29:05.368Z,0
2017-01-27T00:30:06.412Z,0
2017-01-27T00:31:05.465Z,0
2017-01-27T00:32:05.460Z,0
2017-01-27T00:33:05.418Z,0
2017-01-27T00:34:05.384Z,0
2017-01-27T00:35:05.391Z,0
2017-01-27T00:36:05.356Z,0
2017-01-27T00:37:05.460Z,0
2017-01-27T00:38:05.367Z,0
2017-01-27T00:39:05.386Z,0
2017-01-27T00:40:05.495Z,0
2017-01-27T00:41:05.464Z,0
2017-01-27T00:42:05.419Z,0
2017-01-27T00:43:05.434Z,0
2017-01-27T00:44:05.393Z,0
2017-01-27T00:45:05.356Z,0
2017-01-27T00:46:05.377Z,0
2017-01-27T00:47:05.392Z,0
2017-01-27T00:48:05.362Z,0
2017-01-27T00:49:05.385Z,0
2017-01-27T00:50:05.490Z,0
2017-01-27T00:51:05.427Z,0
2017-01-27T00:52:05.418Z,0
2017-01-27T00:53:05.368Z,0
2017-01-27T00:54:05.379Z,0
2017-01-27T00:55:05.362Z,0
2017-01-27T00:56:05.375Z,0
2017-01-27T00:57:05.347Z,0
2017-01-27T00:58:05.401Z,0
2017-01-27T00:59:05.395Z,0
2017-01-27T01:00:05.400Z,0
2017-01-27T01:01:05.380Z,0
2017-01-27T01:02:05.387Z,0
2017-01-27T01:03:05.403Z,0
2017-01-27T01:04:05.389Z,0
2017-01-27T01:05:05.489Z,0
2017-01-27T01:06:05.426Z,0
2017-01-27T01:07:05.447Z,0
2017-01-27T01:08:05.383Z,0
2017-01-27T01:09:05.429Z,0
2017-01-27T01:10:05.409Z,0
2017-01-27T01:11:05.374Z,0
2017-01-27T01:12:05.389Z,0
2017-01-27T01:13:05.414Z,0
2017-01-27T01:14:05.391Z,0
2017-01-27T01:15:05.420Z,0
2017-01-27T01:16:05.392Z,0
2017-01-27T01:17:05.423Z,0
2017-01-27T01:18:05.432Z,0
2017-01-27T01:19:05.384Z,0
2017-01-27T01:20:05.447Z,0
2017-01-27T01:21:05.392Z,0
2017-01-27T01:22:05.414Z,0
2017-01-27T01:23:05.392Z,0
2017-01-27T01:24:05.392Z,0
2017-01-27T01:25:05.408Z,0
2017-01-27T01:26:05.416Z,0
2017-01-27T01:27:05.406Z,0
2017-01-27T01:28:05.393Z,0
2017-01-27T01:29:05.470Z,0
2017-01-27T01:30:05.397Z,0
2017-01-27T01:31:05.479Z,0
2017-01-27T01:32:05.394Z,0
2017-01-27T01:33:05.381Z,0
2017-01-27T01:34:05.490Z,0
2017-01-27T01:35:05.541Z,0
2017-01-27T01:36:05.387Z,0
2017-01-27T01:37:05.367Z,0
2017-01-27T01:38:05.446Z,0
2017-01-27T01:39:05.415Z,0
2017-01-27T01:40:05.425Z,0
2017-01-27T01:41:05.420Z,0
2017-01-27T01:42:05.406Z,0
2017-01-27T01:43:05.438Z,0
2017-01-27T01:44:05.424Z,0
2017-01-27T01:45:05.408Z,0
2017-01-27T01:46:05.445Z,0
2017-01-27T01:47:05.410Z,0
2017-01-27T01:48:05.414Z,0
2017-01-27T01:49:05.423Z,0
2017-01-27T01:50:05.414Z,0
2017-01-27T01:51:05.407Z,0
2017-01-27T01:52:05.410Z,0
2017-01-27T01:53:05.464Z,0
2017-01-27T01:54:05.456Z,0
2017-01-27T01:55:05.433Z,0
2017-01-27T01:56:05.447Z,0
2017-01-27T01:57:05.451Z,0
2017-01-27T01:58:05.421Z,0
2017-01-27T01:59:05.409Z,0
2017-01-27T02:00:05.431Z,0
2017-01-27T02:01:05.401Z,0
2017-01-27T02:02:05.401Z,0
2017-01-27T02:03:05.430Z,0
2017-01-27T02:04:05.435Z,0
2017-01-27T02:05:05.449Z,0
2017-01-27T02:06:05.402Z,0
2017-01-27T02:07:05.448Z,0
2017-01-27T02:08:05.418Z,0
2017-01-27T02:09:05.477Z,0
2017-01-27T02:10:05.433Z,0
2017-01-27T02:11:05.440Z,0
2017-01-27T02:12:05.408Z,0
2017-01-27T02:13:05.443Z,0
2017-01-27T02:14:05.434Z,0
2017-01-27T02:15:05.429Z,0
2017-01-27T02:16:05.428Z,0
2017-01-27T02:17:05.439Z,0
2017-01-27T02:18:05.434Z,0
2017-01-27T02:19:05.441Z,0
2017-01-27T02:20:05.427Z,0
2017-01-27T02:21:05.425Z,0
2017-01-27T02:22:05.412Z,0
2017-01-27T02:23:05.501Z,0
2017-01-27T02:24:05.437Z,0
2017-01-27T02:25:05.450Z,0
2017-01-27T02:26:05.427Z,0
2017-01-27T02:27:05.414Z,0
2017-01-27T02:28:05.481Z,0
2017-01-27T02:29:05.401Z,0
2017-01-27T02:30:05.450Z,0
2017-01-27T02:31:05.479Z,0
2017-01-27T02:32:05.413Z,0
2017-01-27T02:33:05.454Z,0
2017-01-27T02:34:05.432Z,0
2017-01-27T02:35:05.439Z,0
2017-01-27T02:36:05.469Z,0
2017-01-27T02:37:05.453Z,0
2017-01-27T02:38:05.453Z,0
2017-01-27T02:39:05.445Z,0
2017-01-27T02:40:05.446Z,0
2017-01-27T02:41:05.456Z,0
2017-01-27T02:42:05.447Z,0
2017-01-27T02:43:05.443Z,0
2017-01-27T02:44:05.438Z,0
2017-01-27T02:45:05.420Z,0
2017-01-27T02:46:05.485Z,0
2017-01-27T02:47:05.449Z,0
2017-01-27T02:48:05.440Z,0
2017-01-27T02:49:05.452Z,0
2017-01-27T02:50:05.442Z,0
2017-01-27T02:51:05.453Z,0
2017-01-27T02:52:05.459Z,0
2017-01-27T02:53:05.459Z,0
2017-01-27T02:54:05.459Z,0
2017-01-27T02:55:05.444Z,0
2017-01-27T02:56:05.432Z,0
2017-01-27T02:57:05.486Z,0
2017-01-27T02:58:05.439Z,0
2017-01-27T02:59:05.436Z,0
2017-01-27T03:00:05.439Z,0
2017-01-27T03:01:05.445Z,0
2017-01-27T03:02:05.479Z,0
2017-01-27T03:03:05.469Z,0
2017-01-27T03:04:05.445Z,0
2017-01-27T03:05:05.443Z,0
2017-01-27T03:06:05.547Z,0
2017-01-27T03:07:05.465Z,0
2017-01-27T03:08:05.502Z,0
2017-01-27T03:09:05.469Z,0
2017-01-27T03:10:05.448Z,0
2017-01-27T03:11:05.468Z,0
2017-01-27T03:12:05.464Z,0
2017-01-27T03:13:05.444Z,0
2017-01-27T03:14:05.445Z,0
2017-01-27T03:15:05.499Z,0
2017-01-27T03:16:05.446Z,0
2017-01-27T03:17:05.499Z,0
2017-01-27T03:18:05.460Z,0
2017-01-27T03:19:05.482Z,0
2017-01-27T03:20:05.443Z,0
2017-01-27T03:21:05.443Z,0
2017-01-27T03:22:05.483Z,0
2017-01-27T03:23:05.480Z,0
2017-01-27T03:24:05.456Z,0
2017-01-27T03:25:05.475Z,0
2017-01-27T03:26:05.459Z,0
2017-01-27T03:27:05.475Z,0
2017-01-27T03:28:05.439Z,0
2017-01-27T03:29:05.469Z,0
2017-01-27T03:30:05.463Z,0
2017-01-27T03:31:05.456Z,0
2017-01-27T03:32:05.468Z,0
2017-01-27T03:33:05.466Z,0
2017-01-27T03:34:05.477Z,0
2017-01-27T03:35:05.467Z,0
2017-01-27T03:36:05.490Z,0
2017-01-27T03:37:05.499Z,0
2017-01-27T03:38:05.552Z,0
2017-01-27T03:39:05.877Z,0
2017-01-27T03:40:05.456Z,0
2017-01-27T03:41:05.482Z,0
2017-01-27T03:42:05.461Z,0
2017-01-27T03:43:05.550Z,0
2017-01-27T03:44:05.501Z,0
2017-01-27T03:45:05.536Z,0
2017-01-27T03:46:05.526Z,0
2017-01-27T03:47:05.541Z,0
2017-01-27T03:48:05.516Z,0
2017-01-27T03:49:05.581Z,0
2017-01-27T03:50:05.514Z,0
2017-01-27T03:51:05.492Z,0
2017-01-27T03:52:05.480Z,0
2017-01-27T03:53:05.467Z,0
2017-01-27T03:54:05.595Z,0
2017-01-27T03:55:05.473Z,0
2017-01-27T03:56:05.481Z,0
2017-01-27T03:57:05.494Z,0
2017-01-27T03:58:05.468Z,0
2017-01-27T03:59:05.503Z,0
2017-01-27T04:00:05.489Z,0
2017-01-27T04:01:05.512Z,0
2017-01-27T04:02:05.486Z,0
2017-01-27T04:03:05.485Z,0
2017-01-27T04:04:05.538Z,0
2017-01-27T04:05:05.478Z,0
2017-01-27T04:06:05.522Z,0
2017-01-27T04:07:05.492Z,0
2017-01-27T04:08:05.485Z,0
2017-01-27T04:09:05.499Z,0
2017-01-27T04:10:05.483Z,0
2017-01-27T04:11:05.541Z,0
2017-01-27T04:12:05.470Z,0
2017-01-27T04:13:05.535Z,0
2017-01-27T04:14:05.497Z,0
2017-01-27T04:15:05.477Z,0
2017-01-27T04:16:05.498Z,0
2017-01-27T04:17:05.490Z,0
2017-01-27T04:18:05.479Z,0
2017-01-27T04:19:05.497Z,0
2017-01-27T04:20:05.499Z,0
2017-01-27T04:21:05.486Z,0
2017-01-27T04:22:05.494Z,0
2017-01-27T04:23:05.544Z,0
2017-01-27T04:24:05.533Z,0
2017-01-27T04:25:05.524Z,0
2017-01-27T04:26:05.564Z,0
2017-01-27T04:27:05.481Z,0
2017-01-27T04:28:05.477Z,0
2017-01-27T04:29:05.524Z,0
2017-01-27T04:30:05.523Z,0
2017-01-27T04:31:05.506Z,0
2017-01-27T04:32:05.556Z,0
2017-01-27T04:33:05.590Z,0
2017-01-27T04:34:05.572Z,0
2017-01-27T04:35:05.508Z,0
2017-01-27T04:36:05.517Z,0
2017-01-27T04:37:05.545Z,0
2017-01-27T04:38:05.504Z,0
2017-01-27T04:39:05.533Z,0
2017-01-27T04:40:05.516Z,0
2017-01-27T04:41:05.513Z,0
2017-01-27T04:42:05.556Z,0
2017-01-27T04:43:05.534Z,0
2017-01-27T04:44:05.614Z,0
2017-01-27T04:45:05.539Z,0
2017-01-27T04:46:05.502Z,0
2017-01-27T04:47:05.538Z,0
2017-01-27T04:48:05.536Z,0
2017-01-27T04:49:05.564Z,0
2017-01-27T04:50:05.605Z,0
2017-01-27T04:51:05.535Z,0
2017-01-27T04:52:05.521Z,0
2017-01-27T04:53:05.539Z,0
2017-01-27T04:54:05.584Z,0
2017-01-27T04:55:05.510Z,0
2017-01-27T04:56:05.568Z,0
2017-01-27T04:57:05.558Z,0
2017-01-27T04:58:05.539Z,0
2017-01-27T04:59:05.548Z,0
2017-01-27T05:00:05.507Z,0
2017-01-27T05:01:05.592Z,0
2017-01-27T05:02:05.529Z,0
2017-01-27T05:03:05.569Z,0
2017-01-27T05:04:05.573Z,0
2017-01-27T05:05:05.576Z,0
2017-01-27T05:06:05.590Z,0
2017-01-27T05:07:05.561Z,0
2017-01-27T05:08:05.584Z,0
2017-01-27T05:09:05.595Z,0
2017-01-27T05:10:05.567Z,0
2017-01-27T05:11:05.639Z,0
2017-01-27T05:12:05.567Z,0
2017-01-27T05:13:05.583Z,0
2017-01-27T05:14:05.584Z,0
2017-01-27T05:15:05.572Z,0
2017-01-27T05:16:05.565Z,0
2017-01-27T05:17:05.549Z,0
2017-01-27T05:18:05.584Z,0
2017-01-27T05:19:05.706Z,0
2017-01-27T05:20:05.636Z,0
2017-01-27T05:21:05.585Z,0
2017-01-27T05:22:05.558Z,0
2017-01-27T05:23:05.568Z,0
2017-01-27T05:24:05.544Z,0
2017-01-27T05:25:05.623Z,0
2017-01-27T05:26:05.573Z,0
2017-01-27T05:27:05.592Z,0
2017-01-27T05:28:05.584Z,0
2017-01-27T05:29:05.521Z,0
2017-01-27T05:30:05.526Z,0
2017-01-27T05:31:05.507Z,0
2017-01-27T05:32:05.553Z,0
2017-01-27T05:33:05.591Z,0
2017-01-27T05:34:05.532Z,0
2017-01-27T05:35:05.531Z,0
2017-01-27T05:36:05.535Z,0
2017-01-27T05:37:05.528Z,0
2017-01-27T05:38:05.538Z,0
2017-01-27T05:39:05.555Z,0
2017-01-27T05:40:05.512Z,0
2017-01-27T05:41:05.546Z,0
2017-01-27T05:42:05.544Z,0
2017-01-27T05:43:05.524Z,0
2017-01-27T05:44:05.551Z,0
2017-01-27T05:45:05.516Z,0
2017-01-27T05:46:05.533Z,0
2017-01-27T05:47:05.548Z,0
2017-01-27T05:48:05.533Z,0
2017-01-27T05:49:05.537Z,0
2017-01-27T05:50:05.530Z,0
2017-01-27T05:51:05.564Z,0
2017-01-27T05:52:05.540Z,0
2017-01-27T05:53:05.539Z,0
2017-01-27T05:54:05.541Z,0
2017-01-27T05:55:05.527Z,0
2017-01-27T05:56:05.585Z,0
2017-01-27T05:57:05.534Z,0
2017-01-27T05:58:05.560Z,0
2017-01-27T05:59:05.566Z,0
2017-01-27T06:00:05.534Z,0
2017-01-27T06:01:05.528Z,0
2017-01-27T06:02:05.526Z,0
2017-01-27T06:03:05.541Z,0
2017-01-27T06:04:05.538Z,0
2017-01-27T06:05:05.794Z,0
2017-01-27T06:06:05.592Z,0
2017-01-27T06:07:05.559Z,0
2017-01-27T06:08:05.545Z,0
2017-01-27T06:09:05.542Z,0
2017-01-27T06:10:05.583Z,0
2017-01-27T06:11:05.598Z,0
2017-01-27T06:12:05.584Z,0
2017-01-27T06:13:05.553Z,0
2017-01-27T06:14:05.550Z,0
2017-01-27T06:15:05.557Z,0
2017-01-27T06:16:05.563Z,0
2017-01-27T06:17:05.559Z,0
2017-01-27T06:18:05.549Z,0
2017-01-27T06:19:05.553Z,0
2017-01-27T06:20:05.571Z,0
2017-01-27T06:21:05.579Z,0
2017-01-27T06:22:05.570Z,0
2017-01-27T06:23:05.561Z,0
2017-01-27T06:24:05.570Z,0
2017-01-27T06:25:05.588Z,0
2017-01-27T06:26:05.569Z,0
2017-01-27T06:27:05.580Z,0
2017-01-27T06:28:05.553Z,0
2017-01-27T06:29:05.579Z,0
2017-01-27T06:30:05.587Z,0
2017-01-27T06:31:05.566Z,0
2017-01-27T06:32:05.593Z,0
2017-01-27T06:33:05.573Z,0
2017-01-27T06:34:05.595Z,0
2017-01-27T06:35:06.124Z,4
2017-01-27T06:36:05.562Z,4
2017-01-27T06:37:05.569Z,4
2017-01-27T06:38:05.565Z,0
2017-01-27T06:39:05.590Z,0
2017-01-27T06:40:05.560Z,0
2017-01-27T06:41:05.554Z,4
2017-01-27T06:42:05.574Z,4
2017-01-27T06:43:05.580Z,0
2017-01-27T06:44:05.587Z,4
2017-01-27T06:45:05.579Z,4
2017-01-27T06:46:05.583Z,8
2017-01-27T06:47:05.580Z,8
2017-01-27T06:48:05.587Z,8
2017-01-27T06:49:05.590Z,8
2017-01-27T06:50:05.567Z,12
2017-01-27T06:51:05.605Z,12
2017-01-27T06:52:05.611Z,12
2017-01-27T06:53:05.576Z,16
2017-01-27T06:54:05.581Z,20
2017-01-27T06:55:05.626Z,24
2017-01-27T06:56:05.735Z,32
2017-01-27T06:57:05.615Z,32
2017-01-27T06:58:05.628Z,40
2017-01-27T06:59:05.619Z,44
2017-01-27T07:00:05.619Z,56
2017-01-27T07:01:05.599Z,64
2017-01-27T07:02:05.719Z,68
2017-01-27T07:03:05.641Z,80
2017-01-27T07:04:05.612Z,92
2017-01-27T07:05:05.591Z,100
2017-01-27T07:06:05.573Z,112
2017-01-27T07:07:05.585Z,128
2017-01-27T07:08:05.754Z,136
2017-01-27T07:09:05.607Z,156
2017-01-27T07:10:05.633Z,168
2017-01-27T07:11:05.753Z,180
2017-01-27T07:12:05.615Z,200
2017-01-27T07:13:05.603Z,216
2017-01-27T07:14:05.589Z,232
2017-01-27T07:15:05.601Z,248
2017-01-27T07:16:05.588Z,268
2017-01-27T07:17:05.696Z,284
2017-01-27T07:18:05.581Z,308
2017-01-27T07:19:05.671Z,332
2017-01-27T07:20:05.857Z,356
2017-01-27T07:21:05.726Z,384
2017-01-27T07:22:05.706Z,412
2017-01-27T07:23:05.714Z,448
2017-01-27T07:24:05.587Z,480
2017-01-27T07:25:05.575Z,512
2017-01-27T07:26:05.579Z,552
2017-01-27T07:27:05.574Z,592
2017-01-27T07:28:05.594Z,632
2017-01-27T07:29:05.585Z,668
2017-01-27T07:30:05.611Z,708
2017-01-27T07:31:05.585Z,748
2017-01-27T07:32:05.606Z,788
2017-01-27T07:33:05.611Z,824
2017-01-27T07:34:05.617Z,864
2017-01-27T07:35:05.632Z,904
2017-01-27T07:36:05.619Z,940
2017-01-27T07:37:05.616Z,980
2017-01-27T07:38:05.635Z,1020
2017-01-27T07:39:05.590Z,1052
2017-01-27T07:40:05.587Z,1096
2017-01-27T07:41:05.614Z,1136
2017-01-27T07:42:05.652Z,1168
2017-01-27T07:43:05.629Z,1208
2017-01-27T07:44:05.622Z,1240
2017-01-27T07:45:05.622Z,1272
2017-01-27T07:46:05.606Z,1304
2017-01-27T07:47:05.592Z,1340
2017-01-27T07:48:05.621Z,1368
2017-01-27T07:49:05.613Z,1392
2017-01-27T07:50:05.602Z,1420
2017-01-27T07:51:05.610Z,1448
2017-01-27T07:52:05.600Z,1476
2017-01-27T07:53:05.616Z,1500
2017-01-27T07:54:05.613Z,1532
2017-01-27T07:55:05.630Z,1568
2017-01-27T07:56:05.602Z,1608
2017-01-27T07:57:05.697Z,1644
2017-01-27T07:58:05.620Z,1684
2017-01-27T07:59:05.614Z,1732
2017-01-27T08:00:05.635Z,1776
2017-01-27T08:01:05.640Z,1820
2017-01-27T08:02:05.610Z,1864
2017-01-27T08:03:05.624Z,1912
2017-01-27T08:04:05.731Z,1992
2017-01-27T08:05:05.626Z,2068
2017-01-27T08:06:05.628Z,2136
2017-01-27T08:07:05.658Z,2200
2017-01-27T08:08:05.644Z,2256
2017-01-27T08:09:05.664Z,2304
2017-01-27T08:10:05.646Z,2364
2017-01-27T08:11:05.637Z,2404
2017-01-27T08:12:05.668Z,2456
2017-01-27T08:13:05.630Z,2504
2017-01-27T08:14:05.668Z,2556
2017-01-27T08:15:05.625Z,2600
2017-01-27T08:16:05.654Z,2652
2017-01-27T08:17:05.650Z,2716
2017-01-27T08:18:05.628Z,2776
2017-01-27T08:19:05.679Z,2840
2017-01-27T08:20:05.702Z,2896
2017-01-27T08:21:05.670Z,2972
2017-01-27T08:22:05.644Z,3056
2017-01-27T08:23:05.686Z,3124
2017-01-27T08:24:05.671Z,3192
2017-01-27T08:25:05.656Z,3260
2017-01-27T08:26:05.631Z,3328
2017-01-27T08:27:05.658Z,3396
2017-01-27T08:28:05.652Z,3460
2017-01-27T08:29:05.657Z,3520
2017-01-27T08:30:05.641Z,3560
2017-01-27T08:31:05.643Z,3580
2017-01-27T08:32:05.641Z,3604
2017-01-27T08:33:05.650Z,3636
2017-01-27T08:34:05.665Z,3664
2017-01-27T08:35:05.633Z,3696
2017-01-27T08:36:05.649Z,3740
2017-01-27T08:37:05.643Z,3792
2017-01-27T08:38:05.626Z,3832
2017-01-27T08:39:05.645Z,3880
2017-01-27T08:40:05.674Z,3916
2017-01-27T08:41:05.644Z,3944
2017-01-27T08:42:05.642Z,3964
2017-01-27T08:43:05.710Z,3988
2017-01-27T08:44:05.634Z,4016
2017-01-27T08:45:05.661Z,4016
2017-01-27T08:46:05.645Z,4024
2017-01-27T08:47:05.646Z,4064
2017-01-27T08:48:05.642Z,4136
2017-01-27T08:49:05.650Z,4204
2017-01-27T08:50:05.659Z,4276
2017-01-27T08:51:05.680Z,4348
2017-01-27T08:52:05.658Z,4408
2017-01-27T08:53:05.652Z,4488
2017-01-27T08:54:05.679Z,4568
2017-01-27T08:55:05.654Z,4616
2017-01-27T08:56:05.664Z,4656
2017-01-27T08:57:05.637Z,4704
2017-01-27T08:58:05.659Z,4752
2017-01-27T08:59:05.655Z,4796
2017-01-27T09:00:05.642Z,4832
2017-01-27T09:01:05.663Z,4860
2017-01-27T09:02:05.654Z,4884
2017-01-27T09:03:05.684Z,4912
2017-01-27T09:04:05.652Z,4948
2017-01-27T09:05:05.645Z,4972
2017-01-27T09:06:05.699Z,5012
2017-01-27T09:07:05.645Z,5052
2017-01-27T09:08:05.632Z,5104
2017-01-27T09:09:05.679Z,5176
2017-01-27T09:10:05.653Z,5264
2017-01-27T09:11:05.678Z,5344
2017-01-27T09:12:05.652Z,5400
2017-01-27T09:13:05.654Z,5444
2017-01-27T09:14:05.648Z,5448
2017-01-27T09:15:05.673Z,5448
2017-01-27T09:16:05.654Z,5484
2017-01-27T09:17:05.645Z,5536
2017-01-27T09:18:05.647Z,5560
2017-01-27T09:19:05.668Z,5576
2017-01-27T09:20:05.652Z,5592
2017-01-27T09:21:05.656Z,5620
2017-01-27T09:22:05.669Z,5644
2017-01-27T09:23:05.678Z,5676
2017-01-27T09:24:05.666Z,5700
2017-01-27T09:25:05.680Z,5752
2017-01-27T09:26:05.669Z,5800
2017-01-27T09:27:05.684Z,5820
2017-01-27T09:28:05.666Z,5812
2017-01-27T09:29:05.649Z,5788
2017-01-27T09:30:05.674Z,5768
2017-01-27T09:31:05.652Z,5744
2017-01-27T09:32:05.667Z,5712
2017-01-27T09:33:05.673Z,5668
2017-01-27T09:34:05.700Z,5600
2017-01-27T09:35:05.645Z,5516
2017-01-27T09:36:05.693Z,5408
2017-01-27T09:37:05.671Z,5328
2017-01-27T09:38:05.680Z,5272
2017-01-27T09:39:05.670Z,5216
2017-01-27T09:40:05.675Z,5156
2017-01-27T09:41:05.660Z,5096
2017-01-27T09:42:05.675Z,5076
2017-01-27T09:43:05.671Z,5128
2017-01-27T09:44:05.704Z,5144
2017-01-27T09:45:05.679Z,5204
2017-01-27T09:46:05.673Z,5240
2017-01-27T09:47:05.683Z,5272
2017-01-27T09:48:05.687Z,5280
2017-01-27T09:49:05.678Z,5288
2017-01-27T09:50:05.674Z,5272
2017-01-27T09:51:05.689Z,5216
2017-01-27T09:52:05.733Z,5168
2017-01-27T09:53:05.734Z,5156
2017-01-27T09:54:06.204Z,5204
2017-01-27T09:55:05.975Z,5196
2017-01-27T09:56:05.692Z,5144
2017-01-27T09:57:05.677Z,5136
2017-01-27T09:58:05.706Z,5124
2017-01-27T09:59:05.721Z,5160
2017-01-27T10:00:05.714Z,5172
2017-01-27T10:01:05.696Z,5196
2017-01-27T10:02:05.695Z,5196
2017-01-27T10:03:05.694Z,5180
2017-01-27T10:04:05.681Z,5168
2017-01-27T10:05:05.700Z,5144
2017-01-27T10:06:05.708Z,5144
2017-01-27T10:07:05.715Z,5124
2017-01-27T10:08:05.708Z,5120
2017-01-27T10:09:05.702Z,5100
2017-01-27T10:10:05.720Z,5072
2017-01-27T10:11:05.700Z,5076
2017-01-27T10:12:05.863Z,5072
2017-01-27T10:13:05.687Z,5108
2017-01-27T10:14:05.705Z,5144
2017-01-27T10:15:05.701Z,5208
2017-01-27T10:16:05.686Z,5284
2017-01-27T10:17:05.703Z,5368
2017-01-27T10:18:05.715Z,5480
2017-01-27T10:19:05.697Z,5544
2017-01-27T10:20:05.718Z,5568
2017-01-27T10:21:05.701Z,5612
2017-01-27T10:22:05.718Z,5636
2017-01-27T10:23:05.713Z,5684
2017-01-27T10:24:05.706Z,5724
2017-01-27T10:25:05.764Z,5716
2017-01-27T10:26:05.710Z,5672
2017-01-27T10:27:05.707Z,5640
2017-01-27T10:28:05.734Z,5692
2017-01-27T10:29:05.706Z,5712
2017-01-27T10:30:05.737Z,5736
2017-01-27T10:31:05.742Z,5760
2017-01-27T10:32:05.700Z,5752
2017-01-27T10:33:05.714Z,5828
2017-01-27T10:34:05.743Z,5996
2017-01-27T10:35:05.751Z,6212
2017-01-27T10:36:05.707Z,6400
2017-01-27T10:37:05.731Z,6584
2017-01-27T10:38:05.719Z,6752
2017-01-27T10:39:05.806Z,6872
2017-01-27T10:40:05.720Z,6920
2017-01-27T10:41:05.759Z,6960
2017-01-27T10:42:05.794Z,7028
2017-01-27T10:43:05.733Z,7048
2017-01-27T10:44:05.732Z,7108
2017-01-27T10:45:05.782Z,7188
2017-01-27T10:46:05.988Z,7228
2017-01-27T10:47:05.773Z,7276
2017-01-27T10:48:05.754Z,7268
2017-01-27T10:49:05.778Z,7220
2017-01-27T10:50:05.759Z,7172
2017-01-27T10:51:06.347Z,7060
2017-01-27T10:52:05.744Z,6888
2017-01-27T10:53:05.731Z,6696
2017-01-27T10:54:05.819Z,6504
2017-01-27T10:55:05.879Z,6284
2017-01-27T10:56:07.397Z,6120
2017-01-27T10:57:05.894Z,6024
2017-01-27T10:58:06.484Z,5936
2017-01-27T10:59:06.101Z,5828
2017-01-27T11:00:07.878Z,5704
2017-01-27T11:01:06.358Z,5596
2017-01-27T11:02:06.699Z,5472
2017-01-27T11:03:05.917Z,5364
2017-01-27T11:04:05.784Z,5268
2017-01-27T11:05:05.776Z,5192
2017-01-27T11:06:05.861Z,5160
2017-01-27T11:07:05.742Z,5184
2017-01-27T11:08:05.762Z,5244
2017-01-27T11:09:05.862Z,5312
2017-01-27T11:10:05.744Z,5372
2017-01-27T11:11:05.736Z,5436
2017-01-27T11:12:05.733Z,5440
2017-01-27T11:13:05.752Z,5456
2017-01-27T11:14:05.758Z,5488
2017-01-27T11:15:05.779Z,5484
2017-01-27T11:16:05.817Z,5440
2017-01-27T11:17:05.744Z,5392
2017-01-27T11:18:05.788Z,5348
2017-01-27T11:19:05.781Z,5324
2017-01-27T11:20:05.758Z,5316
2017-01-27T11:21:05.736Z,5340
2017-01-27T11:22:05.723Z,5352
2017-01-27T11:23:05.801Z,5344
2017-01-27T11:24:05.753Z,5296
2017-01-27T11:25:05.762Z,5304
2017-01-27T11:26:05.761Z,5384
2017-01-27T11:27:05.801Z,5412
2017-01-27T11:28:05.861Z,5528
2017-01-27T11:29:05.748Z,5644
2017-01-27T11:30:06.208Z,5728
2017-01-27T11:31:05.769Z,5776
2017-01-27T11:32:05.766Z,5836
2017-01-27T11:33:05.772Z,5840
2017-01-27T11:34:05.823Z,5848
2017-01-27T11:35:05.896Z,5856
2017-01-27T11:36:05.758Z,5868
2017-01-27T11:37:05.782Z,5848
2017-01-27T11:38:05.814Z,5796
2017-01-27T11:39:05.863Z,5708
2017-01-27T11:40:06.138Z,5636
2017-01-27T11:41:05.810Z,5644
2017-01-27T11:42:05.968Z,5660
2017-01-27T11:43:05.754Z,5720
2017-01-27T11:44:05.813Z,5760
2017-01-27T11:45:05.761Z,5824
2017-01-27T11:46:05.829Z,5864
2017-01-27T11:47:06.161Z,5860
2017-01-27T11:48:08.859Z,5872
2017-01-27T11:49:08.497Z,5892
2017-01-27T11:50:08.920Z,5924
2017-01-27T11:51:11.046Z,5944
2017-01-27T11:52:08.730Z,5948
2017-01-27T11:53:06.684Z,5912
2017-01-27T11:54:05.820Z,5928
2017-01-27T11:55:08.066Z,5980
2017-01-27T11:56:05.911Z,6076
2017-01-27T11:57:05.845Z,6148
2017-01-27T11:58:05.802Z,6272
2017-01-27T11:59:05.779Z,6388
2017-01-27T12:00:05.947Z,6508
2017-01-27T12:01:05.809Z,6560
2017-01-27T12:02:05.757Z,6576
2017-01-27T12:03:05.799Z,6568
2017-01-27T12:04:06.540Z,6532
2017-01-27T12:05:05.791Z,6532
2017-01-27T12:06:05.770Z,6520
2017-01-27T12:07:05.810Z,6472
2017-01-27T12:08:06.032Z,6376
2017-01-27T12:09:05.794Z,6272
2017-01-27T12:10:05.796Z,6188
2017-01-27T12:11:05.823Z,6100
2017-01-27T12:12:05.923Z,5980
2017-01-27T12:13:06.187Z,5864
2017-01-27T12:14:05.791Z,5780
2017-01-27T12:15:05.788Z,5708
2017-01-27T12:16:05.842Z,5620
2017-01-27T12:17:05.813Z,5520
2017-01-27T12:18:05.775Z,5472
2017-01-27T12:19:05.789Z,5476
2017-01-27T12:20:05.805Z,5484
2017-01-27T12:21:05.812Z,5480
2017-01-27T12:22:05.857Z,5480
2017-01-27T12:23:06.005Z,5468
2017-01-27T12:24:05.841Z,5416
2017-01-27T12:25:05.810Z,5352
2017-01-27T12:26:05.776Z,5260
2017-01-27T12:27:05.870Z,5212
2017-01-27T12:28:05.796Z,5180
2017-01-27T12:29:05.814Z,5164
2017-01-27T12:30:05.900Z,5112
2017-01-27T12:31:05.960Z,5072
2017-01-27T12:32:05.856Z,5016
2017-01-27T12:33:05.857Z,4948
2017-01-27T12:34:05.830Z,4888
2017-01-27T12:35:05.798Z,4908
2017-01-27T12:36:05.950Z,5000
2017-01-27T12:37:05.976Z,5080
2017-01-27T12:38:05.785Z,5136
2017-01-27T12:39:05.770Z,5140
2017-01-27T12:40:05.787Z,5132
2017-01-27T12:41:05.854Z,5124
2017-01-27T12:42:05.793Z,5100
2017-01-27T12:43:05.891Z,5088
2017-01-27T12:44:05.780Z,5128
2017-01-27T12:45:05.782Z,5168
2017-01-27T12:46:05.814Z,5212
2017-01-27T12:47:05.798Z,5264
2017-01-27T12:48:05.811Z,5316
2017-01-27T12:49:05.967Z,5368
2017-01-27T12:50:05.910Z,5400
2017-01-27T12:51:05.956Z,5428
2017-01-27T12:52:05.991Z,5428
2017-01-27T12:53:05.788Z,5420
2017-01-27T12:54:05.864Z,5392
2017-01-27T12:55:05.818Z,5312
2017-01-27T12:56:05.819Z,5264
2017-01-27T12:57:05.864Z,5260
2017-01-27T12:58:05.807Z,5244
2017-01-27T12:59:06.402Z,5204
2017-01-27T13:00:05.914Z,5112
2017-01-27T13:01:05.901Z,5092
2017-01-27T13:02:05.855Z,5116
2017-01-27T13:03:05.813Z,5100
2017-01-27T13:04:05.830Z,5016
2017-01-27T13:05:05.815Z,4912
2017-01-27T13:06:05.815Z,4820
2017-01-27T13:07:05.815Z,4732
2017-01-27T13:08:06.007Z,4660
2017-01-27T13:09:05.831Z,4576
2017-01-27T13:10:05.819Z,4484
2017-01-27T13:11:06.085Z,4400
2017-01-27T13:12:05.977Z,4368
2017-01-27T13:13:05.961Z,4376
2017-01-27T13:14:05.813Z,4400
2017-01-27T13:15:05.804Z,4452
2017-01-27T13:16:05.986Z,4496
2017-01-27T13:17:05.977Z,4512
2017-01-27T13:18:05.890Z,4528
2017-01-27T13:19:05.839Z,4524
2017-01-27T13:20:05.815Z,4480
2017-01-27T13:21:06.102Z,4396
2017-01-27T13:22:05.831Z,4288
2017-01-27T13:23:05.820Z,4164
2017-01-27T13:24:05.828Z,4044
2017-01-27T13:25:05.830Z,3940
2017-01-27T13:26:05.853Z,3848
2017-01-27T13:27:05.863Z,3784
2017-01-27T13:28:06.062Z,3728
2017-01-27T13:29:05.898Z,3684
2017-01-27T13:30:05.837Z,3664
2017-01-27T13:31:05.877Z,3680
2017-01-27T13:32:06.131Z,3724
2017-01-27T13:33:05.863Z,3796
2017-01-27T13:34:06.088Z,3864
2017-01-27T13:35:05.917Z,3916
2017-01-27T13:36:05.858Z,3932
2017-01-27T13:37:05.839Z,3932
2017-01-27T13:38:05.908Z,3924
2017-01-27T13:39:05.839Z,3916
2017-01-27T13:40:05.845Z,3900
2017-01-27T13:41:05.896Z,3888
2017-01-27T13:42:05.902Z,3856
2017-01-27T13:43:05.885Z,3828
2017-01-27T13:44:05.886Z,3800
2017-01-27T13:45:05.870Z,3772
2017-01-27T13:46:05.850Z,3732
2017-01-27T13:47:05.859Z,3700
2017-01-27T13:48:05.942Z,3680
2017-01-27T13:49:05.879Z,3668
2017-01-27T13:50:05.928Z,3664
2017-01-27T13:51:05.856Z,3652
2017-01-27T13:52:05.947Z,3648
2017-01-27T13:53:05.875Z,3648
2017-01-27T13:54:05.885Z,3640
2017-01-27T13:55:05.861Z,3620
2017-01-27T13:56:05.875Z,3580
2017-01-27T13:57:05.843Z,3536
2017-01-27T13:58:05.942Z,3488
2017-01-27T13:59:05.940Z,3448
2017-01-27T14:00:05.850Z,3432
2017-01-27T14:01:06.608Z,3440